Time;durP1;ratioP1;P1;durP2;ratioP2;P2;SDS_P1;SDS_P2;PMS_P1;PMS_P2;Temp;Humidity;BMP_temperature;BMP_pressure;BME280_temperature;BME280_humidity;BME280_pressure;Samples;Min_cycle;Max_cycle;Signal;HPM_P1;HPM_P2
2022/06/30 00:02:18;;;;;;;2.50;2.40;;;29.40;40.10;;;;;;5044317;28;20537;-81
2022/06/30 00:04:46;;;;;;;2.70;2.60;;;29.30;40.10;;;;;;5042856;28;20497;-81
2022/06/30 00:07:14;;;;;;;2.70;2.60;;;29.30;40.20;;;;;;5043628;28;20554;-81
2022/06/30 00:09:42;;;;;;;2.27;2.17;;;29.30;40.20;;;;;;5045973;28;20480;-81
2022/06/30 00:12:11;;;;;;;2.40;2.30;;;29.30;40.10;;;;;;5057679;28;20487;-81
2022/06/30 00:14:40;;;;;;;2.43;2.33;;;29.30;40.10;;;;;;5043345;28;20447;-81
2022/06/30 00:17:08;;;;;;;2.60;2.50;;;29.30;40.80;;;;;;5043127;28;20481;-81
2022/06/30 00:19:36;;;;;;;2.40;2.30;;;29.20;40.10;;;;;;5042962;28;20467;-81
2022/06/30 00:22:07;;;;;;;2.83;2.30;;;29.20;40.20;;;;;;5043155;28;20479;-81
2022/06/30 00:24:35;;;;;;;3.17;2.97;;;29.20;40.20;;;;;;5043732;28;20460;-81
2022/06/30 00:27:04;;;;;;;2.30;2.20;;;29.20;40.30;;;;;;5047844;28;20494;-81
2022/06/30 00:29:34;;;;;;;2.37;2.27;;;29.20;40.20;;;;;;5063001;28;20465;-81
2022/06/30 00:32:02;;;;;;;2.40;2.30;;;29.20;40.20;;;;;;5062971;28;20458;-81
2022/06/30 00:34:30;;;;;;;2.30;2.20;;;29.20;40.20;;;;;;5063174;28;20450;-81
2022/06/30 00:36:58;;;;;;;2.50;2.33;;;29.10;40.10;;;;;;5062927;28;20466;-81
2022/06/30 00:39:26;;;;;;;2.40;2.30;;;29.10;40.20;;;;;;5063525;28;20474;-81
2022/06/30 00:41:54;;;;;;;2.30;2.20;;;29.10;40.20;;;;;;5063018;28;20509;-81
2022/06/30 00:44:22;;;;;;;2.40;2.30;;;29.10;40.20;;;;;;5058934;28;20463;-81
2022/06/30 00:46:52;;;;;;;2.70;2.07;;;29.10;40.30;;;;;;5043299;28;20448;-81
2022/06/30 00:49:20;;;;;;;2.60;2.50;;;29.10;40.30;;;;;;5043128;28;20481;-81
2022/06/30 00:51:48;;;;;;;2.07;1.97;;;29.10;40.10;;;;;;5041644;28;20550;-81
2022/06/30 00:54:17;;;;;;;2.23;2.13;;;29.00;40.20;;;;;;5042219;28;20474;-81
2022/06/30 00:56:47;;;;;;;2.00;2.00;;;29.00;40.20;;;;;;5042016;28;20478;-81
2022/06/30 00:59:16;;;;;;;2.00;2.00;;;29.00;40.20;;;;;;5048947;28;20493;-81
2022/06/30 01:01:44;;;;;;;2.50;2.30;;;28.90;40.30;;;;;;5052568;28;20547;-81
2022/06/30 01:04:15;;;;;;;2.27;2.17;;;28.90;40.30;;;;;;5042506;28;20454;-81
2022/06/30 01:06:44;;;;;;;2.20;2.10;;;28.90;40.20;;;;;;5042569;28;20486;-81
2022/06/30 01:12:41;;;;;;;2.03;1.93;;;28.90;40.20;;;;;;5041535;28;20478;-81
2022/06/30 01:14:48;;;;;;;2.50;2.40;;;28.90;40.40;;;;;;5045346;28;20559;-81
2022/06/30 01:17:16;;;;;;;3.03;2.83;;;28.90;40.40;;;;;;5055897;28;20969;-81
2022/06/30 01:19:53;;;;;;;1.90;1.80;;;28.80;40.40;;;;;;5042185;28;20518;-81
2022/06/30 01:22:22;;;;;;;2.10;2.00;;;28.80;40.30;;;;;;5040999;28;20485;-81
2022/06/30 01:24:50;;;;;;;2.10;2.00;;;28.80;40.40;;;;;;5041371;28;20447;-81
2022/06/30 01:27:18;;;;;;;2.07;1.97;;;28.80;40.40;;;;;;5041771;28;20538;-81
2022/06/30 01:29:46;;;;;;;2.43;2.33;;;28.70;40.40;;;;;;5041423;28;20542;-82
2022/06/30 01:32:14;;;;;;;2.30;2.20;;;28.70;40.30;;;;;;5041555;28;20485;-82
2022/06/30 01:34:42;;;;;;;2.20;2.10;;;28.70;40.40;;;;;;5041868;28;20526;-82
2022/06/30 01:37:10;;;;;;;2.00;1.90;;;28.70;40.40;;;;;;5059758;28;20466;-82
2022/06/30 01:39:41;;;;;;;2.00;1.80;;;28.60;40.40;;;;;;5059527;28;20472;-82
2022/06/30 01:42:09;;;;;;;2.10;2.00;;;28.60;40.60;;;;;;5060834;28;20478;-82
2022/06/30 01:44:37;;;;;;;2.27;2.17;;;28.60;40.50;;;;;;5062802;28;20438;-82
2022/06/30 01:47:05;;;;;;;2.03;1.93;;;28.60;40.50;;;;;;5062509;28;20481;-82
2022/06/30 01:49:33;;;;;;;2.20;2.10;;;28.50;40.50;;;;;;5060568;28;20427;-82
2022/06/30 01:52:01;;;;;;;2.30;2.17;;;28.50;40.50;;;;;;5053030;28;20494;-82
2022/06/30 01:54:29;;;;;;;2.20;1.80;;;28.50;40.60;;;;;;5042313;28;20475;-81
2022/06/30 01:56:58;;;;;;;1.73;1.73;;;28.50;40.60;;;;;;5041771;28;20482;-81
2022/06/30 01:59:26;;;;;;;2.20;2.10;;;28.50;40.50;;;;;;5042535;28;20534;-82
2022/06/30 02:01:54;;;;;;;2.60;2.00;;;28.40;40.60;;;;;;5042688;28;20558;-82
2022/06/30 02:07:08;;;;;;;2.50;2.30;;;28.40;40.60;;;;;;5045108;28;20534;-81
2022/06/30 02:09:36;;;;;;;2.33;2.23;;;28.40;40.60;;;;;;5051380;28;20445;-82
2022/06/30 02:14:51;;;;;;;2.10;2.00;;;28.30;40.60;;;;;;5062858;28;20508;-82
2022/06/30 02:17:19;;;;;;;2.27;2.17;;;28.30;40.70;;;;;;5062344;28;20521;-83
2022/06/30 02:19:47;;;;;;;1.90;1.80;;;28.30;40.80;;;;;;5062254;28;20462;-82
2022/06/30 02:22:15;;;;;;;2.20;2.10;;;28.30;40.60;;;;;;5053992;28;20470;-83
2022/06/30 02:24:43;;;;;;;2.20;2.10;;;28.20;40.60;;;;;;5059823;28;20461;-82
2022/06/30 02:27:12;;;;;;;1.93;1.83;;;28.20;40.70;;;;;;5049975;28;20511;-82
2022/06/30 02:29:40;;;;;;;1.70;1.70;;;28.20;40.80;;;;;;5041753;28;20550;-82
2022/06/30 02:32:09;;;;;;;2.07;1.77;;;28.20;40.70;;;;;;5042472;28;20546;-82
2022/06/30 02:34:37;;;;;;;2.10;2.00;;;28.20;40.70;;;;;;5041480;28;20542;-83
2022/06/30 02:37:05;;;;;;;1.67;1.60;;;28.20;40.70;;;;;;5041222;28;20447;-82
2022/06/30 02:39:33;;;;;;;1.87;1.77;;;28.10;40.60;;;;;;5041401;28;20449;-82
2022/06/30 02:42:01;;;;;;;2.27;2.17;;;28.10;40.70;;;;;;5057039;28;20561;-82
2022/06/30 02:44:31;;;;;;;1.93;1.77;;;28.10;40.80;;;;;;5041258;28;20971;-82
2022/06/30 02:46:58;;;;;;;2.30;2.20;;;28.10;40.80;;;;;;5041248;28;20526;-83
2022/06/30 02:49:27;;;;;;;2.00;1.90;;;28.00;40.80;;;;;;5042266;28;20469;-82
2022/06/30 02:51:55;;;;;;;2.10;2.00;;;28.10;40.80;;;;;;5043211;28;20479;-83
2022/06/30 02:54:22;;;;;;;1.93;1.93;;;28.00;40.60;;;;;;5041801;28;20478;-83
2022/06/30 02:56:51;;;;;;;2.30;2.20;;;27.90;40.90;;;;;;5040775;28;20435;-83
2022/06/30 02:59:18;;;;;;;2.07;1.97;;;27.90;40.80;;;;;;5050026;28;20454;-83
2022/06/30 03:01:47;;;;;;;4.90;1.90;;;28.00;40.70;;;;;;5051024;28;20463;-83
2022/06/30 03:04:15;;;;;;;2.20;2.10;;;27.90;41.00;;;;;;5041740;28;20562;-82
2022/06/30 03:06:44;;;;;;;1.93;1.83;;;27.90;40.80;;;;;;5041268;28;20449;-83
2022/06/30 03:09:12;;;;;;;2.30;2.20;;;27.80;40.70;;;;;;5042402;28;20451;-82
2022/06/30 03:11:40;;;;;;;2.10;2.00;;;27.90;40.90;;;;;;5041567;28;20507;-83
2022/06/30 03:14:18;;;;;;;2.07;2.00;;;27.80;40.80;;;;;;5041633;28;20470;-82
2022/06/30 03:16:48;;;;;;;1.97;1.90;;;27.80;40.80;;;;;;5057667;28;20468;-83
2022/06/30 03:19:16;;;;;;;1.90;1.80;;;27.80;40.90;;;;;;5041530;28;20446;-83
2022/06/30 03:21:44;;;;;;;2.20;2.10;;;27.80;41.10;;;;;;5040389;28;20822;-82
2022/06/30 03:24:12;;;;;;;1.77;1.77;;;27.80;40.90;;;;;;5039653;28;20522;-82
2022/06/30 03:26:40;;;;;;;2.20;1.87;;;27.80;41.00;;;;;;5039225;28;20451;-82
2022/06/30 03:29:07;;;;;;;2.30;2.20;;;27.70;40.90;;;;;;5039519;28;20531;-82
2022/06/30 03:31:35;;;;;;;2.40;2.30;;;27.70;40.70;;;;;;5042322;28;20545;-82
2022/06/30 03:34:04;;;;;;;2.20;2.10;;;27.70;41.00;;;;;;5056348;28;20437;-82
2022/06/30 03:36:33;;;;;;;2.00;1.90;;;27.70;41.00;;;;;;5041797;28;20446;-82
2022/06/30 03:39:01;;;;;;;1.70;1.70;;;27.70;40.80;;;;;;5042627;28;20878;-82
2022/06/30 03:41:29;;;;;;;1.87;1.87;;;27.70;41.00;;;;;;5043014;28;20435;-82
2022/06/30 03:43:56;;;;;;;1.93;1.83;;;27.70;40.70;;;;;;5043406;28;20522;-82
2022/06/30 03:46:24;;;;;;;2.17;2.07;;;27.70;41.00;;;;;;5042493;28;20435;-82
2022/06/30 03:48:52;;;;;;;2.00;1.90;;;27.70;41.00;;;;;;5041615;28;20435;-82
2022/06/30 03:51:22;;;;;;;2.00;2.00;;;27.60;40.90;;;;;;5057472;28;20549;-82
2022/06/30 03:53:50;;;;;;;2.00;1.90;;;27.70;40.90;;;;;;5043463;28;20485;-83
2022/06/30 03:56:17;;;;;;;1.70;1.70;;;27.70;41.00;;;;;;5042299;28;20962;-82
2022/06/30 03:58:45;;;;;;;2.00;1.90;;;27.60;40.80;;;;;;5042851;28;20482;-82
2022/06/30 04:01:13;;;;;;;1.80;1.70;;;27.60;41.00;;;;;;5043746;28;20482;-82
2022/06/30 04:03:41;;;;;;;2.20;2.10;;;27.60;41.10;;;;;;5043066;28;20515;-82
2022/06/30 04:06:09;;;;;;;2.13;2.03;;;27.60;40.90;;;;;;5046535;28;20486;-83
2022/06/30 04:08:38;;;;;;;1.60;1.60;;;27.60;40.80;;;;;;5051444;28;20442;-82
2022/06/30 04:11:06;;;;;;;1.90;1.80;;;27.60;40.90;;;;;;5062686;28;20431;-82
2022/06/30 04:13:33;;;;;;;1.90;1.80;;;27.60;40.90;;;;;;5062822;28;20558;-81
2022/06/30 04:16:01;;;;;;;1.93;1.83;;;27.70;40.80;;;;;;5062560;28;20435;-82
2022/06/30 04:18:29;;;;;;;1.90;1.80;;;27.60;40.80;;;;;;5062852;28;20434;-82
2022/06/30 04:20:57;;;;;;;1.70;1.70;;;27.70;40.90;;;;;;5062219;28;20469;-82
2022/06/30 04:23:25;;;;;;;2.00;1.90;;;27.70;40.90;;;;;;5059740;28;20449;-82
2022/06/30 04:25:54;;;;;;;2.10;2.10;;;27.70;40.80;;;;;;5052253;28;20454;-82
2022/06/30 04:28:22;;;;;;;2.20;2.10;;;27.70;40.70;;;;;;5044973;28;20514;-82
2022/06/30 04:33:32;;;;;;;1.90;1.80;;;27.70;40.70;;;;;;5022058;28;20459;-82
2022/06/30 04:36:00;;;;;;;1.50;1.50;;;27.70;40.60;;;;;;5044212;28;20476;-82
2022/06/30 04:38:28;;;;;;;1.97;1.87;;;27.70;40.70;;;;;;5044247;28;20467;-82
2022/06/30 04:43:42;;;;;;;1.60;1.60;;;27.60;40.60;;;;;;5045683;28;20529;-83
2022/06/30 04:46:10;;;;;;;1.80;1.70;;;27.70;40.60;;;;;;5042703;28;20432;-83
2022/06/30 04:48:38;;;;;;;1.80;1.80;;;27.70;40.60;;;;;;5041788;28;20402;-83
2022/06/30 04:51:07;;;;;;;2.20;2.13;;;27.70;40.60;;;;;;5042933;28;20467;-83
2022/06/30 04:53:36;;;;;;;1.80;1.80;;;27.70;40.60;;;;;;5042509;28;20434;-82
2022/06/30 04:56:06;;;;;;;1.80;1.70;;;27.70;40.50;;;;;;5042617;28;20471;-82
2022/06/30 04:58:33;;;;;;;1.97;1.87;;;27.80;40.50;;;;;;5057980;28;20484;-83
2022/06/30 05:01:02;;;;;;;2.60;1.87;;;27.80;41.00;;;;;;5043069;28;20470;-83
2022/06/30 05:03:30;;;;;;;1.90;1.90;;;27.80;40.40;;;;;;5042356;28;20471;-82
2022/06/30 05:05:59;;;;;;;1.80;1.80;;;27.80;40.40;;;;;;5041997;28;20538;-82
2022/06/30 05:08:27;;;;;;;1.90;1.90;;;27.80;40.30;;;;;;5042561;28;20441;-82
2022/06/30 05:10:55;;;;;;;1.73;1.70;;;27.80;40.30;;;;;;5042097;28;20470;-83
2022/06/30 05:13:28;;;;;;;2.20;2.10;;;27.80;40.30;;;;;;5048328;28;20486;-82
2022/06/30 05:15:56;;;;;;;1.87;1.77;;;27.80;40.20;;;;;;5048730;28;20443;-83
2022/06/30 05:18:26;;;;;;;1.90;1.80;;;27.80;40.30;;;;;;5040694;28;20534;-82
2022/06/30 05:20:54;;;;;;;1.90;1.80;;;27.80;40.20;;;;;;5041389;28;20447;-82
2022/06/30 05:23:22;;;;;;;1.83;1.73;;;27.90;40.30;;;;;;5040129;28;20475;-82
2022/06/30 05:28:37;;;;;;;2.10;2.00;;;27.90;40.20;;;;;;5041836;28;20541;-82
2022/06/30 05:31:05;;;;;;;2.33;2.23;;;27.90;40.10;;;;;;5056354;28;20505;-82
2022/06/30 05:33:34;;;;;;;1.83;1.73;;;28.00;39.90;;;;;;5041637;28;20460;-82
2022/06/30 05:36:02;;;;;;;1.90;1.80;;;28.00;40.00;;;;;;5039922;28;20530;-82
2022/06/30 05:38:31;;;;;;;1.80;1.70;;;28.00;40.00;;;;;;5041269;28;20450;-82
2022/06/30 05:40:59;;;;;;;1.90;1.80;;;28.00;39.80;;;;;;5041831;28;20526;-82
2022/06/30 05:43:27;;;;;;;2.13;2.03;;;28.00;40.10;;;;;;5042436;28;20494;-83
2022/06/30 05:45:56;;;;;;;2.23;2.13;;;28.10;40.00;;;;;;5041910;28;20463;-82
2022/06/30 05:48:24;;;;;;;2.10;2.10;;;28.10;39.80;;;;;;5058025;28;20458;-83
2022/06/30 05:50:52;;;;;;;1.90;1.90;;;28.20;39.70;;;;;;5062475;28;20473;-82
2022/06/30 05:53:20;;;;;;;2.10;2.00;;;28.20;39.60;;;;;;5062250;28;20463;-83
2022/06/30 05:55:48;;;;;;;2.17;1.97;;;28.30;39.50;;;;;;5061560;28;20469;-82
2022/06/30 05:58:18;;;;;;;2.10;2.00;;;28.40;39.50;;;;;;5062492;28;20470;-83
2022/06/30 06:00:46;;;;;;;2.03;1.93;;;28.40;39.60;;;;;;5062422;28;20446;-82
2022/06/30 06:03:16;;;;;;;2.40;2.23;;;28.50;39.40;;;;;;5065458;28;20498;-83
2022/06/30 06:05:45;;;;;;;2.07;1.97;;;28.50;39.40;;;;;;5058585;28;20532;-82
2022/06/30 06:08:13;;;;;;;2.20;2.10;;;28.60;39.30;;;;;;5041897;28;20479;-83
2022/06/30 06:10:41;;;;;;;2.57;2.47;;;28.60;39.20;;;;;;5041682;28;20934;-83
2022/06/30 06:13:11;;;;;;;2.07;1.97;;;28.60;39.30;;;;;;5041565;28;20487;-82
2022/06/30 06:15:39;;;;;;;2.03;1.93;;;28.60;39.20;;;;;;5042356;28;20471;-82
2022/06/30 06:18:07;;;;;;;2.57;2.47;;;28.60;39.20;;;;;;5042485;28;20458;-83
2022/06/30 06:20:36;;;;;;;2.83;2.73;;;28.60;39.20;;;;;;5048845;28;20486;-83
2022/06/30 06:23:04;;;;;;;2.53;2.43;;;28.60;39.80;;;;;;5053469;28;20437;-82
2022/06/30 06:25:32;;;;;;;2.30;2.20;;;28.60;39.40;;;;;;5062861;28;20470;-82
2022/06/30 06:30:54;;;;;;;2.30;2.20;;;28.60;39.30;;;;;;5063189;28;20454;-83
2022/06/30 06:33:22;;;;;;;2.33;2.20;;;28.60;39.40;;;;;;5061806;28;20474;-83
2022/06/30 06:35:52;;;;;;;2.30;2.20;;;28.70;39.40;;;;;;5061192;28;20466;-83
2022/06/30 06:38:19;;;;;;;2.80;2.70;;;28.70;39.30;;;;;;5059057;28;20545;-84
2022/06/30 06:40:47;;;;;;;2.53;2.43;;;28.70;39.30;;;;;;5060832;28;20466;-84
2022/06/30 06:43:16;;;;;;;2.30;2.20;;;28.90;39.30;;;;;;5060896;28;20475;-83
2022/06/30 06:45:44;;;;;;;2.10;2.00;;;29.00;39.10;;;;;;5059481;28;20447;-83
2022/06/30 06:48:12;;;;;;;2.70;2.60;;;29.00;39.00;;;;;;5059539;28;20433;-83
2022/06/30 06:50:40;;;;;;;2.47;2.37;;;29.00;39.10;;;;;;5053007;28;20462;-83
2022/06/30 06:53:09;;;;;;;2.90;2.80;;;29.00;39.10;;;;;;5059156;28;20455;-83
2022/06/30 06:55:37;;;;;;;2.40;2.30;;;29.00;39.10;;;;;;5057436;28;20482;-83
2022/06/30 06:58:05;;;;;;;2.30;2.20;;;29.10;39.20;;;;;;5059283;28;20453;-83
2022/06/30 07:00:33;;;;;;;2.30;2.20;;;29.10;39.10;;;;;;5059877;28;20549;-83
2022/06/30 07:03:01;;;;;;;2.50;2.40;;;29.10;39.20;;;;;;5058181;28;20545;-84
2022/06/30 07:05:29;;;;;;;2.50;2.40;;;29.10;39.30;;;;;;5057165;28;20509;-83
2022/06/30 07:07:58;;;;;;;2.40;2.30;;;29.10;39.20;;;;;;5058515;28;20469;-83
2022/06/30 07:10:27;;;;;;;2.40;2.30;;;29.10;39.20;;;;;;5063815;28;20446;-83
2022/06/30 07:12:55;;;;;;;2.13;2.03;;;29.20;39.30;;;;;;5059183;28;20474;-81
2022/06/30 07:15:23;;;;;;;2.27;2.17;;;29.30;39.50;;;;;;5063432;28;20899;-82
2022/06/30 07:17:50;;;;;;;2.33;2.23;;;29.30;39.30;;;;;;5064264;28;20525;-82
2022/06/30 07:20:19;;;;;;;2.17;2.07;;;29.40;39.40;;;;;;5063686;28;20530;-82
2022/06/30 07:22:46;;;;;;;2.23;2.13;;;29.50;39.20;;;;;;5063477;28;20455;-82
2022/06/30 07:25:24;;;;;;;2.50;2.30;;;29.60;39.30;;;;;;5063326;28;20466;-82
2022/06/30 07:27:53;;;;;;;2.40;2.30;;;29.70;39.10;;;;;;5064671;28;20425;-82
2022/06/30 07:30:23;;;;;;;2.20;2.10;;;29.80;39.20;;;;;;5063789;28;20450;-82
2022/06/30 07:32:51;;;;;;;2.20;2.10;;;29.90;39.30;;;;;;5063614;28;20489;-82
2022/06/30 07:35:20;;;;;;;1.80;1.80;;;29.90;39.00;;;;;;5064145;28;20477;-82
2022/06/30 07:37:48;;;;;;;1.90;1.80;;;30.00;39.10;;;;;;5062540;28;20481;-82
2022/06/30 07:40:16;;;;;;;2.13;2.03;;;30.10;39.10;;;;;;5065623;28;20442;-82
2022/06/30 07:42:44;;;;;;;2.20;2.10;;;30.20;39.10;;;;;;5064397;28;20852;-82
2022/06/30 07:45:14;;;;;;;2.20;2.10;;;30.30;39.20;;;;;;5063364;28;20505;-83
2022/06/30 07:47:43;;;;;;;2.27;2.17;;;30.40;39.20;;;;;;5060729;28;20492;-82
2022/06/30 07:50:11;;;;;;;1.83;1.83;;;30.50;39.00;;;;;;5061345;28;20891;-82
2022/06/30 07:52:39;;;;;;;2.07;2.00;;;30.60;39.10;;;;;;5071558;28;20493;-83
2022/06/30 07:55:07;;;;;;;2.20;2.10;;;30.70;39.00;;;;;;5082784;28;20437;-83
2022/06/30 07:57:37;;;;;;;3.43;2.00;;;30.80;39.10;;;;;;5082870;28;20468;-83
2022/06/30 08:00:06;;;;;;;1.80;1.70;;;30.90;39.00;;;;;;5084152;28;20844;-83
2022/06/30 08:02:35;;;;;;;2.27;2.17;;;31.00;39.00;;;;;;5049564;28;20457;-82
2022/06/30 08:05:04;;;;;;;1.90;1.90;;;31.10;39.00;;;;;;5050878;28;20475;-82
2022/06/30 08:07:31;;;;;;;2.13;2.03;;;31.20;39.00;;;;;;5056104;28;20435;-83
2022/06/30 08:09:59;;;;;;;2.10;2.00;;;31.30;38.90;;;;;;5049213;28;20482;-83
2022/06/30 08:12:27;;;;;;;2.17;2.07;;;31.40;38.90;;;;;;5056784;28;20484;-82
2022/06/30 08:14:55;;;;;;;2.13;2.03;;;31.50;38.80;;;;;;5060698;28;20447;-82
2022/06/30 08:17:23;;;;;;;2.00;1.90;;;31.70;38.90;;;;;;5056010;28;20451;-83
2022/06/30 08:19:53;;;;;;;2.10;2.10;;;31.80;38.80;;;;;;5059259;28;20921;-83
2022/06/30 08:22:21;;;;;;;2.17;2.07;;;31.90;38.80;;;;;;5058966;28;20477;-82
2022/06/30 08:24:49;;;;;;;2.10;2.10;;;32.00;38.80;;;;;;5041613;28;20483;-82
2022/06/30 08:27:17;;;;;;;2.10;1.97;;;32.10;38.70;;;;;;5042059;28;20483;-83
2022/06/30 08:29:45;;;;;;;2.20;2.10;;;32.30;38.70;;;;;;5060053;28;20438;-83
2022/06/30 08:32:13;;;;;;;2.10;2.07;;;32.40;38.60;;;;;;5047573;28;20491;-83
2022/06/30 08:34:41;;;;;;;2.10;2.00;;;32.50;38.50;;;;;;5043944;28;20442;-83
2022/06/30 08:37:10;;;;;;;3.37;2.20;;;32.70;38.50;;;;;;5059603;28;20521;-83
2022/06/30 08:42:23;;;;;;;1.67;1.67;;;33.00;38.40;;;;;;5058977;28;20572;-82
2022/06/30 08:47:33;;;;;;;1.87;1.87;;;33.20;38.30;;;;;;5038625;28;20521;-82
2022/06/30 08:50:01;;;;;;;1.97;1.87;;;33.40;38.20;;;;;;5058964;28;20450;-82
2022/06/30 08:52:32;;;;;;;2.10;2.07;;;33.60;38.20;;;;;;5057249;28;20463;-82
2022/06/30 08:55:01;;;;;;;2.20;2.10;;;33.70;38.10;;;;;;5059564;28;20524;-83
2022/06/30 08:57:30;;;;;;;1.80;1.80;;;33.80;38.00;;;;;;5056100;28;21009;-83
2022/06/30 08:59:58;;;;;;;1.70;1.70;;;34.00;37.90;;;;;;5055175;28;20447;-83
2022/06/30 09:02:26;;;;;;;2.10;2.00;;;34.20;37.80;;;;;;5052641;28;20467;-83
2022/06/30 09:04:54;;;;;;;2.10;2.00;;;34.30;37.60;;;;;;5051900;28;20470;-82
2022/06/30 09:07:22;;;;;;;1.80;1.70;;;34.50;37.60;;;;;;5047037;28;20977;-82
2022/06/30 09:09:51;;;;;;;2.07;1.97;;;34.60;37.50;;;;;;5045910;28;20459;-81
2022/06/30 09:12:19;;;;;;;1.60;1.60;;;34.80;37.40;;;;;;5047954;28;20459;-81
2022/06/30 09:14:47;;;;;;;1.73;1.70;;;35.00;37.30;;;;;;5051355;28;20517;-81
2022/06/30 09:17:16;;;;;;;2.03;1.93;;;35.10;37.20;;;;;;5053462;28;20443;-82
2022/06/30 09:19:52;;;;;;;1.80;1.80;;;35.30;37.10;;;;;;5048415;28;20439;-82
2022/06/30 09:22:20;;;;;;;2.20;2.00;;;35.50;37.00;;;;;;5046948;28;20491;-82
2022/06/30 09:25:00;;;;;;;1.73;1.63;;;35.70;37.00;;;;;;5043516;28;20435;-82
2022/06/30 09:27:29;;;;;;;2.00;1.67;;;35.80;36.70;;;;;;5038118;28;20471;-82
2022/06/30 09:30:00;;;;;;;1.73;1.70;;;36.00;36.60;;;;;;5056861;28;20459;-81
2022/06/30 09:32:48;;;;;;;1.63;1.63;;;36.20;36.60;;;;;;5058988;28;20466;-82
2022/06/30 09:35:16;;;;;;;2.00;1.90;;;36.30;36.30;;;;;;5058304;28;20437;-82
2022/06/30 09:37:44;;;;;;;1.90;1.70;;;36.50;36.20;;;;;;5044733;28;20483;-82
2022/06/30 09:40:13;;;;;;;2.10;2.10;;;36.60;36.00;;;;;;5037681;28;20439;-81
2022/06/30 09:42:42;;;;;;;2.00;2.00;;;36.80;36.00;;;;;;5038740;28;20530;-81
2022/06/30 09:45:36;;;;;;;1.83;1.73;;;36.90;35.90;;;;;;5038120;28;20452;-81
2022/06/30 09:48:05;;;;;;;1.73;1.73;;;37.10;35.80;;;;;;5040099;28;20441;-81
2022/06/30 09:50:33;;;;;;;2.00;1.90;;;37.20;35.60;;;;;;5057242;28;20447;-81
2022/06/30 09:53:12;;;;;;;1.77;1.67;;;37.40;35.60;;;;;;5057146;28;20468;-81
2022/06/30 09:55:43;;;;;;;1.93;1.93;;;37.50;35.50;;;;;;5057017;28;20442;-81
2022/06/30 09:58:12;;;;;;;1.67;1.67;;;37.70;35.40;;;;;;5049529;28;20510;-81
2022/06/30 10:00:45;;;;;;;1.77;1.67;;;37.90;35.30;;;;;;5055170;28;20533;-81
2022/06/30 10:03:13;;;;;;;1.73;1.73;;;38.00;35.20;;;;;;5056599;28;20903;-81
2022/06/30 10:05:44;;;;;;;1.73;1.63;;;38.20;35.20;;;;;;5056346;28;20525;-81
2022/06/30 10:08:13;;;;;;;1.70;1.60;;;38.40;35.00;;;;;;5056780;28;20450;-81
2022/06/30 10:10:42;;;;;;;1.60;1.60;;;38.60;35.00;;;;;;5041018;28;20457;-81
2022/06/30 10:13:13;;;;;;;1.77;1.77;;;38.70;34.80;;;;;;5053186;28;21056;-81
2022/06/30 10:15:41;;;;;;;3.53;1.80;;;38.80;34.70;;;;;;5041784;28;20440;-81
2022/06/30 10:18:09;;;;;;;1.60;1.60;;;39.00;34.50;;;;;;5039102;28;20450;-81
2022/06/30 10:20:38;;;;;;;1.60;1.60;;;39.20;34.40;;;;;;5040844;28;20495;-82
2022/06/30 10:23:07;;;;;;;1.63;1.63;;;39.40;34.30;;;;;;5036700;28;20459;-81
2022/06/30 10:25:35;;;;;;;1.73;1.63;;;39.50;34.20;;;;;;5048345;28;20541;-81
2022/06/30 10:28:05;;;;;;;1.73;1.70;;;39.70;34.00;;;;;;5038445;28;20505;-82
2022/06/30 10:30:42;;;;;;;1.73;1.73;;;39.80;33.80;;;;;;5022156;28;20439;-82
2022/06/30 10:33:14;;;;;;;1.60;1.50;;;40.10;33.70;;;;;;5054117;28;20541;-82
2022/06/30 10:35:43;;;;;;;1.97;1.87;;;40.20;33.50;;;;;;5047787;28;20517;-81
2022/06/30 10:38:14;;;;;;;1.77;1.77;;;40.40;33.40;;;;;;5057832;28;20442;-81
2022/06/30 10:40:47;;;;;;;1.90;1.80;;;40.60;33.30;;;;;;5056950;28;20489;-81
2022/06/30 10:43:18;;;;;;;1.77;1.67;;;40.80;33.20;;;;;;5061169;28;20541;-82
2022/06/30 10:45:57;;;;;;;1.30;1.30;;;40.90;33.00;;;;;;5046252;28;20519;-80
2022/06/30 10:48:27;;;;;;;1.73;1.73;;;41.00;32.80;;;;;;5056790;28;20568;-81
2022/06/30 10:50:55;;;;;;;1.50;1.50;;;41.20;32.60;;;;;;5063837;28;20465;-82
2022/06/30 10:53:51;;;;;;;1.40;1.40;;;41.40;32.60;;;;;;5064446;28;20556;-82
2022/06/30 10:56:19;;;;;;;1.50;1.50;;;41.60;32.40;;;;;;5037783;28;20945;-82
2022/06/30 10:59:08;;;;;;;1.70;1.70;;;41.90;32.20;;;;;;5041516;28;20497;-82
2022/06/30 11:01:36;;;;;;;1.60;1.60;;;42.10;32.10;;;;;;5059690;28;20476;-83
2022/06/30 11:04:05;;;;;;;1.60;1.50;;;42.20;31.80;;;;;;5061623;28;20464;-83
2022/06/30 11:07:01;;;;;;;1.90;1.80;;;42.40;31.60;;;;;;5044991;28;20453;-82
2022/06/30 11:10:06;;;;;;;1.60;1.60;;;42.60;31.60;;;;;;5047011;28;20434;-82
2022/06/30 11:13:06;;;;;;;1.30;1.30;;;42.80;31.40;;;;;;5045566;28;20512;-82
2022/06/30 11:15:55;;;;;;;1.50;1.50;;;43.00;31.30;;;;;;5058672;28;20502;-82
2022/06/30 11:18:23;;;;;;;1.50;1.50;;;43.20;31.00;;;;;;5058406;28;20446;-82
2022/06/30 11:20:51;;;;;;;1.73;1.63;;;43.40;30.80;;;;;;5040179;28;20507;-82
2022/06/30 11:23:20;;;;;;;1.43;1.43;;;43.60;30.70;;;;;;5042131;28;20465;-81
2022/06/30 11:28:41;;;;;;;1.73;1.63;;;44.30;30.00;;;;;;5057456;28;20557;-81
2022/06/30 11:31:27;;;;;;;1.20;1.20;;;44.90;29.70;;;;;;5058677;28;20517;-82
2022/06/30 11:33:56;;;;;;;2.30;1.30;;;45.40;29.40;;;;;;5040081;28;20474;-82
2022/06/30 11:36:24;;;;;;;1.30;1.20;;;45.80;28.90;;;;;;5048608;28;20478;-82
2022/06/30 11:38:56;;;;;;;1.17;1.17;;;46.10;28.70;;;;;;5059233;28;20458;-82
2022/06/30 11:44:11;;;;;;;1.47;1.40;;;46.70;28.10;;;;;;5038561;28;20529;-82
2022/06/30 11:46:55;;;;;;;1.30;1.30;;;47.00;27.90;;;;;;5038633;28;20449;-82
2022/06/30 11:49:24;;;;;;;1.13;1.13;;;47.20;27.80;;;;;;5047146;28;20441;-82
2022/06/30 11:51:52;;;;;;;1.10;1.10;;;47.30;27.60;;;;;;5060192;28;20434;-83
2022/06/30 11:54:23;;;;;;;1.70;1.10;;;47.20;27.40;;;;;;5056799;28;20513;-84
2022/06/30 11:56:51;;;;;;;0.97;0.97;;;47.40;27.50;;;;;;5039841;28;20433;-84
2022/06/30 11:59:19;;;;;;;1.17;1.17;;;47.40;27.30;;;;;;5049112;28;20461;-82
2022/06/30 12:02:06;;;;;;;1.60;1.35;;;47.40;27.20;;;;;;5063089;28;20460;-82
2022/06/30 12:04:35;;;;;;;1.53;1.43;;;47.10;27.30;;;;;;5065298;28;20472;-83
2022/06/30 12:07:04;;;;;;;4.73;1.30;;;46.60;27.30;;;;;;5047838;28;20470;-83
2022/06/30 12:09:32;;;;;;;1.30;1.20;;;46.40;27.80;;;;;;5054731;28;20465;-83
2022/06/30 12:12:00;;;;;;;1.23;1.20;;;46.10;28.00;;;;;;5050829;28;20482;-83
2022/06/30 12:14:32;;;;;;;1.20;1.10;;;46.20;28.00;;;;;;5053582;28;20477;-83
2022/06/30 12:16:59;;;;;;;1.40;1.40;;;46.20;28.00;;;;;;5060593;28;20454;-83
2022/06/30 12:19:28;;;;;;;1.40;1.30;;;46.20;28.00;;;;;;5061402;28;20501;-83
2022/06/30 12:21:56;;;;;;;1.50;1.50;;;46.50;27.70;;;;;;5042749;28;20511;-83
2022/06/30 12:24:24;;;;;;;1.37;1.27;;;46.60;27.60;;;;;;5041647;28;20443;-83
2022/06/30 12:26:53;;;;;;;1.13;1.13;;;46.60;27.50;;;;;;5041007;28;20431;-82
2022/06/30 12:29:22;;;;;;;1.30;1.30;;;46.70;27.60;;;;;;5060506;28;20497;-82
2022/06/30 12:31:59;;;;;;;1.40;1.30;;;46.70;27.50;;;;;;5059778;28;20520;-82
2022/06/30 12:34:29;;;;;;;1.30;1.30;;;46.90;27.60;;;;;;5059362;28;20450;-82
2022/06/30 12:36:57;;;;;;;1.27;1.27;;;46.80;27.50;;;;;;5056241;28;20888;-82
2022/06/30 12:39:25;;;;;;;1.43;1.10;;;46.90;27.40;;;;;;5061758;28;20525;-82
2022/06/30 12:42:01;;;;;;;1.20;1.20;;;47.00;27.40;;;;;;5041258;28;20430;-82
2022/06/30 12:44:30;;;;;;;1.37;1.27;;;46.80;27.50;;;;;;5048992;28;20529;-82
2022/06/30 12:47:03;;;;;;;1.20;1.20;;;46.80;27.70;;;;;;5061146;28;20429;-82
2022/06/30 12:49:32;;;;;;;1.27;1.13;;;46.80;27.50;;;;;;5057580;28;20469;-82
2022/06/30 12:52:00;;;;;;;2.00;1.30;;;46.90;27.50;;;;;;5054329;28;20462;-82
2022/06/30 12:54:28;;;;;;;1.40;1.30;;;46.90;27.50;;;;;;5041869;28;20521;-82
2022/06/30 12:57:02;;;;;;;1.20;1.20;;;46.80;27.70;;;;;;5041551;28;20439;-82
2022/06/30 12:59:30;;;;;;;1.70;1.60;;;47.00;27.50;;;;;;5045729;28;20444;-82
2022/06/30 13:01:59;;;;;;;1.30;1.30;;;47.10;27.50;;;;;;5060859;28;20548;-82
2022/06/30 13:04:28;;;;;;;1.40;1.40;;;47.10;27.30;;;;;;5060790;28;20506;-82
2022/06/30 13:06:58;;;;;;;1.30;1.20;;;47.00;27.40;;;;;;5058832;28;20476;-83
2022/06/30 13:09:27;;;;;;;1.30;1.30;;;46.90;27.30;;;;;;5048258;28;20482;-82
2022/06/30 13:11:55;;;;;;;2.33;1.30;;;46.70;27.50;;;;;;5062286;28;20556;-83
2022/06/30 13:14:24;;;;;;;1.60;1.60;;;46.70;27.60;;;;;;5057253;28;20858;-82
2022/06/30 13:16:53;;;;;;;1.70;1.60;;;46.70;27.60;;;;;;5062343;28;20480;-83
2022/06/30 13:19:22;;;;;;;1.50;1.40;;;46.80;27.50;;;;;;5061806;28;20453;-82
2022/06/30 13:21:49;;;;;;;1.47;1.37;;;46.70;27.50;;;;;;5062635;28;20449;-83
2022/06/30 13:24:19;;;;;;;1.47;1.47;;;46.80;27.50;;;;;;5063352;28;20426;-82
2022/06/30 13:26:47;;;;;;;4.20;1.67;;;46.80;27.40;;;;;;5059518;28;20450;-81
2022/06/30 13:29:16;;;;;;;2.80;2.70;;;46.40;26.20;;;;;;5053934;28;20561;-84
2022/06/30 13:31:45;;;;;;;3.50;3.40;;;45.10;25.30;;;;;;5064166;28;20525;-84